Time;durP1;ratioP1;P1;durP2;ratioP2;P2;SDS_P1;SDS_P2;PMS_P1;PMS_P2;Temp;Humidity;BMP_temperature;BMP_pressure;BME280_temperature;BME280_humidity;BME280_pressure;Samples;Min_cycle;Max_cycle;Signal;HPM_P1;HPM_P2
2022/03/13 00:00:59;;;;;;;21.63;14.63;;;;;;;7.95;43.31;100624.13;4191919;28;20128;-60
2022/03/13 00:03:02;;;;;;;21.83;12.95;;;;;;;7.94;43.18;100631.88;4179153;28;20044;-60
2022/03/13 00:05:09;;;;;;;20.67;14.25;;;;;;;7.94;43.08;100627.56;4183256;28;20044;-58
2022/03/13 00:07:17;;;;;;;25.67;15.00;;;;;;;7.97;43.31;100621.59;4189595;28;20040;-61
2022/03/13 00:09:21;;;;;;;23.08;14.32;;;;;;;7.97;43.70;100622.50;4198334;28;20091;-61
2022/03/13 00:11:27;;;;;;;35.65;22.92;;;;;;;7.94;43.75;100624.97;4182003;28;20100;-61
2022/03/13 00:13:32;;;;;;;30.65;19.98;;;;;;;7.91;43.91;100624.88;4182033;28;20041;-61
2022/03/13 00:15:37;;;;;;;31.88;20.00;;;;;;;7.84;43.94;100631.63;4179772;28;20053;-61
2022/03/13 00:17:41;;;;;;;34.33;19.98;;;;;;;7.76;44.16;100629.66;4193989;28;20394;-61
2022/03/13 00:19:44;;;;;;;32.25;19.17;;;;;;;7.69;44.07;100626.91;4209857;28;20051;-61
2022/03/13 00:21:51;;;;;;;29.70;17.50;;;;;;;7.70;44.06;100632.94;4215047;28;20040;-61
2022/03/13 00:23:54;;;;;;;26.67;17.48;;;;;;;7.72;44.22;100622.63;4201727;28;20270;-61
2022/03/13 00:25:57;;;;;;;28.52;17.15;;;;;;;7.72;44.46;100630.38;4198205;28;20121;-61
2022/03/13 00:28:02;;;;;;;38.53;25.27;;;;;;;7.76;44.29;100634.81;4184864;28;20037;-61
2022/03/13 00:30:06;;;;;;;39.40;23.38;;;;;;;7.75;43.94;100622.72;4180333;28;20049;-61
2022/03/13 00:32:10;;;;;;;49.90;34.13;;;;;;;7.75;43.39;100622.72;4197169;28;20068;-61
2022/03/13 00:34:16;;;;;;;35.78;22.45;;;;;;;7.71;43.61;100620.88;4193748;28;20171;-61
2022/03/13 00:36:19;;;;;;;33.30;16.90;;;;;;;7.67;42.33;100618.19;4188894;28;20041;-60
2022/03/13 00:38:22;;;;;;;22.67;15.68;;;;;;;7.66;42.22;100625.91;4196963;28;20102;-61
2022/03/13 00:40:26;;;;;;;23.67;16.35;;;;;;;7.65;42.30;100619.88;4204197;28;20090;-61
2022/03/13 00:42:30;;;;;;;20.60;13.65;;;;;;;7.68;41.74;100616.47;4188994;28;20068;-60
2022/03/13 00:44:35;;;;;;;23.73;15.27;;;;;;;7.72;42.20;100612.28;4189923;28;20087;-60
2022/03/13 00:46:37;;;;;;;24.60;15.93;;;;;;;7.73;42.21;100621.81;4184115;28;20041;-63
2022/03/13 00:48:41;;;;;;;22.65;14.95;;;;;;;7.75;42.19;100622.72;4167858;28;20068;-61
2022/03/13 00:50:44;;;;;;;25.50;16.88;;;;;;;7.72;42.37;100623.50;4193885;28;20048;-61
2022/03/13 00:52:47;;;;;;;21.52;14.98;;;;;;;7.72;41.82;100618.31;4180215;28;20037;-61
2022/03/13 00:54:50;;;;;;;22.00;13.25;;;;;;;7.75;41.31;100617.53;4190395;28;20423;-61
2022/03/13 00:56:53;;;;;;;23.73;14.85;;;;;;;7.73;42.22;100619.22;4194738;28;20161;-61
2022/03/13 00:58:56;;;;;;;19.67;13.60;;;;;;;7.71;42.76;100615.69;4205316;28;20486;-60
2022/03/13 01:01:00;;;;;;;21.10;13.35;;;;;;;7.73;42.60;100621.81;4191470;28;20032;-61
2022/03/13 01:03:03;;;;;;;18.48;13.20;;;;;;;7.70;42.27;100612.22;4194377;28;20455;-61
2022/03/13 01:05:09;;;;;;;22.77;13.00;;;;;;;7.64;42.67;100612.94;4209879;28;21660;-60
2022/03/13 01:07:14;;;;;;;18.33;12.90;;;;;;;7.61;42.87;100607.69;4195635;28;20057;-60
2022/03/13 01:09:17;;;;;;;21.08;13.45;;;;;;;7.54;43.24;100600.56;4189303;28;20037;-61
2022/03/13 01:11:21;;;;;;;20.95;14.35;;;;;;;7.55;43.64;100609.19;4176495;28;20099;-60
2022/03/13 01:13:24;;;;;;;20.90;11.70;;;;;;;7.50;44.12;100598.72;4196801;28;20098;-61
2022/03/13 01:15:27;;;;;;;20.77;14.57;;;;;;;7.42;43.54;100606.25;4192928;28;20053;-61
2022/03/13 01:17:31;;;;;;;22.92;12.57;;;;;;;7.42;44.23;100600.22;4185809;28;20447;-61
2022/03/13 01:19:35;;;;;;;20.20;13.00;;;;;;;7.29;44.85;100598.97;4182130;28;20408;-61
2022/03/13 01:21:41;;;;;;;19.58;12.93;;;;;;;7.26;44.04;100607.53;4180761;28;20036;-60
2022/03/13 01:24:19;;;;;;;23.40;14.18;;;;;;;7.09;44.72;100603.53;4186331;28;20045;-61
2022/03/13 01:26:37;;;;;;;22.02;13.70;;;;;;;6.99;45.21;100613.63;4189910;28;20089;-60
2022/03/13 01:28:40;;;;;;;22.08;12.40;;;;;;;6.95;45.25;100613.44;4196753;28;20040;-60
2022/03/13 01:30:43;;;;;;;21.40;14.13;;;;;;;6.79;45.13;100612.06;4179346;28;20502;-60
2022/03/13 01:32:53;;;;;;;19.73;12.95;;;;;;;6.70;45.41;100614.38;4187803;28;20049;-61
2022/03/13 01:34:56;;;;;;;22.52;14.45;;;;;;;6.62;45.34;100609.84;4181476;28;20414;-60
2022/03/13 01:36:59;;;;;;;20.55;13.38;;;;;;;6.71;45.50;100600.63;4177842;28;20053;-61
2022/03/13 01:39:02;;;;;;;22.77;15.90;;;;;;;6.80;45.42;100609.56;4190827;28;20028;-60
2022/03/13 01:41:05;;;;;;;28.15;19.85;;;;;;;6.87;45.62;100600.28;4191414;28;20044;-61
2022/03/13 01:43:08;;;;;;;18.88;13.38;;;;;;;6.81;45.58;100600.09;4191087;28;20513;-60
2022/03/13 01:45:12;;;;;;;19.27;14.15;;;;;;;6.73;45.71;100606.72;4177864;28;20045;-60
2022/03/13 01:47:15;;;;;;;19.90;13.40;;;;;;;6.67;46.00;100602.22;4195172;28;20057;-60
2022/03/13 01:49:20;;;;;;;23.10;13.73;;;;;;;6.62;45.95;100604.66;4182413;28;20033;-60
2022/03/13 01:51:23;;;;;;;18.77;13.15;;;;;;;6.56;46.22;100611.34;4192366;28;20040;-60
2022/03/13 01:53:26;;;;;;;23.63;15.10;;;;;;;6.31;46.25;100614.81;4182201;28;20072;-60
2022/03/13 01:55:29;;;;;;;22.00;14.57;;;;;;;6.33;46.39;100611.44;4181110;28;20570;-60
2022/03/13 01:57:32;;;;;;;20.63;13.65;;;;;;;6.41;46.79;100599.69;4197157;28;20067;-60
2022/03/13 01:59:36;;;;;;;22.67;13.73;;;;;;;6.44;46.27;100598.91;4189634;28;20095;-60
2022/03/13 02:01:39;;;;;;;18.08;12.85;;;;;;;6.45;46.66;100596.38;4194482;28;20113;-60
2022/03/13 02:03:49;;;;;;;21.98;13.00;;;;;;;6.44;46.58;100597.19;4195947;28;20049;-60
2022/03/13 02:05:53;;;;;;;26.77;14.45;;;;;;;6.44;46.66;100604.09;4196396;28;20037;-61
2022/03/13 02:07:57;;;;;;;22.55;13.23;;;;;;;6.42;46.43;100600.56;4177957;28;20052;-60
2022/03/13 02:10:00;;;;;;;22.38;13.52;;;;;;;6.34;46.61;100602.88;4194096;28;20032;-61
2022/03/13 02:12:05;;;;;;;20.42;13.52;;;;;;;6.29;46.74;100607.00;4179577;28;20044;-60
2022/03/13 02:14:11;;;;;;;21.15;14.50;;;;;;;6.25;46.49;100598.28;4181623;28;20520;-60
2022/03/13 02:16:15;;;;;;;20.42;13.90;;;;;;;6.17;46.83;100604.03;4175881;28;20049;-60
2022/03/13 02:18:18;;;;;;;22.85;15.15;;;;;;;6.09;46.73;100601.19;4180973;28;20029;-60
2022/03/13 02:20:26;;;;;;;20.35;14.25;;;;;;;6.17;46.98;100593.69;4190016;28;20029;-60
2022/03/13 02:22:31;;;;;;;19.67;13.48;;;;;;;6.20;46.76;100592.09;4180510;28;20044;-61
2022/03/13 02:24:35;;;;;;;22.08;13.65;;;;;;;6.19;47.12;100587.78;4180443;28;20461;-61
2022/03/13 02:26:38;;;;;;;20.92;14.13;;;;;;;6.14;47.42;100583.28;4195758;28;20047;-61
2022/03/13 02:28:49;;;;;;;25.02;14.38;;;;;;;6.14;46.85;100583.28;4191817;28;20041;-60
2022/03/13 02:30:54;;;;;;;24.45;14.25;;;;;;;6.12;47.27;100585.81;4179906;28;20052;-61
2022/03/13 02:32:57;;;;;;;20.45;13.75;;;;;;;6.14;47.14;100578.97;4188992;28;20474;-61
2022/03/13 02:35:00;;;;;;;19.55;13.63;;;;;;;6.16;47.41;100579.88;4189848;28;20486;-61
2022/03/13 02:37:04;;;;;;;19.00;14.02;;;;;;;6.12;47.27;100575.47;4198554;28;20037;-61
2022/03/13 02:39:08;;;;;;;23.38;15.02;;;;;;;6.06;47.37;100580.41;4180136;28;20045;-61
2022/03/13 02:41:12;;;;;;;28.25;15.48;;;;;;;5.95;47.37;100580.00;4177715;28;20488;-61
2022/03/13 02:43:17;;;;;;;23.55;13.63;;;;;;;5.86;48.00;100577.13;4195798;28;20086;-60
2022/03/13 02:45:27;;;;;;;;;;;;;;;5.67;49.67;100585.91;4174957;28;20049;-61
2022/03/13 02:47:30;;;;;;;21.67;14.15;;;;;;;5.63;49.67;100586.63;4194888;28;20301;-61
2022/03/13 02:49:34;;;;;;;18.05;13.63;;;;;;;5.49;50.70;100581.84;4195897;28;20402;-61
2022/03/13 02:51:36;;;;;;;18.60;13.60;;;;;;;5.32;51.97;100593.22;4189022;28;20553;-61
2022/03/13 02:53:40;;;;;;;21.92;13.75;;;;;;;5.13;52.23;100592.50;4190286;28;20040;-61
2022/03/13 02:55:43;;;;;;;21.13;14.93;;;;;;;4.90;53.53;100591.63;4197630;28;20103;-60
2022/03/13 02:57:49;;;;;;;21.17;13.48;;;;;;;4.84;52.91;100597.41;4192873;28;20446;-61
2022/03/13 02:59:52;;;;;;;19.07;14.00;;;;;;;4.70;52.61;100599.44;4194687;28;20071;-61
2022/03/13 03:01:55;;;;;;;21.95;14.27;;;;;;;4.77;51.87;100592.81;4191186;28;20341;-61
2022/03/13 03:04:00;;;;;;;21.88;14.20;;;;;;;4.89;52.95;100585.59;4182798;28;20045;-60
2022/03/13 03:06:03;;;;;;;23.67;15.00;;;;;;;5.01;52.17;100586.91;4191742;28;20036;-61
2022/03/13 03:08:05;;;;;;;22.17;15.07;;;;;;;5.16;52.32;100587.47;4193670;28;20043;-61
2022/03/13 03:10:13;;;;;;;24.38;15.13;;;;;;;5.17;51.76;100584.09;4182962;28;20036;-61
2022/03/13 03:12:16;;;;;;;19.40;13.02;;;;;;;5.19;51.26;100582.44;4177734;28;20102;-61
2022/03/13 03:14:20;;;;;;;23.17;14.55;;;;;;;5.10;50.15;100584.66;4180998;28;20037;-61
2022/03/13 03:16:23;;;;;;;17.38;12.13;;;;;;;4.94;49.97;100585.78;4194985;28;20044;-61
2022/03/13 03:18:26;;;;;;;20.33;13.30;;;;;;;5.01;49.39;100589.47;4193147;28;20267;-61
2022/03/13 03:20:29;;;;;;;18.63;13.32;;;;;;;5.13;49.98;100583.91;4188810;28;20086;-61
2022/03/13 03:22:32;;;;;;;20.95;13.65;;;;;;;5.21;49.92;100592.78;4193893;28;20063;-61
2022/03/13 03:24:35;;;;;;;22.05;13.18;;;;;;;5.21;49.21;100587.66;4186988;28;20048;-61
2022/03/13 03:26:38;;;;;;;21.38;13.48;;;;;;;5.18;49.17;100585.84;4191330;28;20098;-61
2022/03/13 03:28:40;;;;;;;19.38;13.25;;;;;;;5.25;49.23;100587.81;4195759;28;20059;-60
2022/03/13 03:30:45;;;;;;;23.55;13.93;;;;;;;5.37;49.93;100589.09;4189348;28;20047;-60
2022/03/13 03:32:48;;;;;;;20.35;13.30;;;;;;;5.39;49.51;100585.75;4190662;28;20059;-61
2022/03/13 03:34:51;;;;;;;20.52;12.38;;;;;;;5.45;48.87;100590.28;4180157;28;20053;-61
2022/03/13 03:36:56;;;;;;;19.75;12.02;;;;;;;5.46;47.86;100586.88;4197644;28;20044;-60
2022/03/13 03:38:59;;;;;;;17.10;12.88;;;;;;;5.42;47.48;100592.75;4197299;28;20040;-60
2022/03/13 03:41:01;;;;;;;19.98;13.65;;;;;;;5.46;47.63;100592.03;4215727;28;20058;-60
2022/03/13 03:43:06;;;;;;;18.73;12.77;;;;;;;5.54;47.62;100593.19;4199742;28;20044;-60
2022/03/13 03:45:10;;;;;;;20.10;13.15;;;;;;;5.55;47.44;100594.94;4183583;28;20107;-61
2022/03/13 03:47:14;;;;;;;18.92;12.98;;;;;;;5.57;47.18;100590.72;4175551;28;20045;-61
2022/03/13 03:49:17;;;;;;;23.55;13.75;;;;;;;5.48;46.97;100586.94;4196342;28;20059;-61
2022/03/13 03:51:20;;;;;;;19.77;13.27;;;;;;;5.47;47.00;100582.59;4194995;28;20052;-61
2022/03/13 03:53:23;;;;;;;21.40;13.50;;;;;;;5.49;47.26;100584.41;4186676;28;20049;-61
2022/03/13 03:55:26;;;;;;;20.65;13.40;;;;;;;5.48;47.40;100589.53;4183381;28;20041;-60
2022/03/13 03:57:29;;;;;;;25.15;13.73;;;;;;;5.50;47.23;100583.56;4189264;28;20434;-61
2022/03/13 03:59:32;;;;;;;18.00;13.15;;;;;;;5.48;47.81;100584.38;4192062;28;20048;-61
2022/03/13 04:01:37;;;;;;;19.08;13.02;;;;;;;5.47;47.62;100580.88;4189551;28;20107;-61
2022/03/13 04:03:42;;;;;;;19.58;12.75;;;;;;;5.47;47.82;100588.63;4197547;28;20116;-61
2022/03/13 04:05:44;;;;;;;21.05;13.57;;;;;;;5.44;47.52;100579.91;4194239;28;20100;-61
2022/03/13 04:07:47;;;;;;;22.15;13.23;;;;;;;5.42;47.55;100579.84;4193431;28;20049;-61
2022/03/13 04:09:50;;;;;;;17.77;12.57;;;;;;;5.49;47.61;100580.94;4181881;28;20099;-61
2022/03/13 04:11:53;;;;;;;17.27;12.50;;;;;;;5.47;47.04;100583.47;4182034;28;20075;-61
2022/03/13 04:13:56;;;;;;;18.38;12.40;;;;;;;5.45;46.85;100582.53;4178183;28;20048;-61
2022/03/13 04:15:58;;;;;;;20.23;13.55;;;;;;;5.39;47.05;100577.16;4180409;28;20103;-61
2022/03/13 04:18:01;;;;;;;20.30;13.05;;;;;;;5.40;46.82;100577.22;4167799;28;20510;-60
2022/03/13 04:20:06;;;;;;;19.92;13.07;;;;;;;5.42;47.07;100580.72;4184463;28;20102;-61
2022/03/13 04:22:09;;;;;;;22.73;12.82;;;;;;;5.37;46.72;100565.91;4179011;28;20055;-61
2022/03/13 04:24:13;;;;;;;17.88;12.45;;;;;;;5.25;46.52;100576.63;4183137;28;20044;-59
2022/03/13 04:26:16;;;;;;;21.60;14.68;;;;;;;5.13;47.03;100571.03;4186753;28;20060;-59
2022/03/13 04:28:19;;;;;;;23.75;14.23;;;;;;;5.07;47.47;100576.81;4192458;28;20041;-59
2022/03/13 04:30:22;;;;;;;21.77;12.85;;;;;;;5.11;47.32;100578.72;4190324;28;20044;-59
2022/03/13 04:32:24;;;;;;;21.27;13.85;;;;;;;5.14;47.21;100572.75;4197293;28;20040;-59
2022/03/13 04:34:27;;;;;;;21.23;13.85;;;;;;;5.16;47.42;100572.00;4175831;28;20100;-59
2022/03/13 04:36:33;;;;;;;19.50;12.55;;;;;;;5.16;47.43;100572.00;4195363;28;20044;-62
2022/03/13 04:38:35;;;;;;;19.63;13.02;;;;;;;5.14;47.14;100573.66;4197620;28;20045;-60
2022/03/13 04:40:38;;;;;;;23.27;14.00;;;;;;;5.11;47.52;100577.81;4197732;28;20048;-59
2022/03/13 04:42:41;;;;;;;20.73;13.35;;;;;;;5.08;47.17;100581.13;4195673;28;20036;-60
2022/03/13 04:44:44;;;;;;;20.40;13.35;;;;;;;5.06;46.86;100585.38;4182851;28;20101;-60
2022/03/13 04:46:46;;;;;;;26.02;13.88;;;;;;;4.92;47.29;100594.25;4180313;28;20076;-60
2022/03/13 04:48:49;;;;;;;19.15;12.00;;;;;;;4.88;46.99;100590.69;4178870;28;20072;-59
2022/03/13 04:50:52;;;;;;;23.75;14.75;;;;;;;4.79;48.57;100595.47;4197667;28;20043;-60
2022/03/13 04:52:56;;;;;;;23.48;13.65;;;;;;;4.78;49.84;100588.56;4196457;28;20078;-60
2022/03/13 04:54:59;;;;;;;21.90;14.18;;;;;;;4.75;50.48;100591.91;4196316;28;20482;-60
2022/03/13 04:57:01;;;;;;;17.90;12.18;;;;;;;4.75;50.06;100597.06;4197627;28;20560;-59
2022/03/13 04:59:07;;;;;;;25.17;12.77;;;;;;;4.69;50.00;100601.97;4194542;28;20518;-60
2022/03/13 05:01:10;;;;;;;19.42;11.98;;;;;;;4.72;50.07;100604.66;4185745;28;20068;-60
2022/03/13 05:03:12;;;;;;;20.70;13.18;;;;;;;4.67;50.05;100603.56;4188838;28;20572;-60
2022/03/13 05:05:15;;;;;;;20.08;12.82;;;;;;;4.70;50.02;100606.28;4196148;28;20071;-60
2022/03/13 05:07:22;;;;;;;21.60;13.45;;;;;;;4.68;50.51;100613.06;4179693;28;20091;-60
2022/03/13 05:09:26;;;;;;;26.52;15.05;;;;;;;4.69;50.69;100607.13;4181135;28;20055;-60
2022/03/13 05:11:29;;;;;;;20.52;14.35;;;;;;;4.73;50.88;100603.81;4195268;28;20083;-60
2022/03/13 05:13:32;;;;;;;18.30;13.60;;;;;;;4.71;51.64;100602.88;4178226;28;20049;-60
2022/03/13 05:15:36;;;;;;;20.50;13.20;;;;;;;4.73;51.34;100614.13;4186781;28;20072;-60
2022/03/13 05:17:39;;;;;;;19.93;13.57;;;;;;;4.70;51.61;100614.91;4187261;28;20048;-60
2022/03/13 05:19:41;;;;;;;20.80;14.85;;;;;;;4.75;51.20;100617.66;4180959;28;20287;-60
2022/03/13 05:21:44;;;;;;;20.00;13.57;;;;;;;4.67;51.23;100619.03;4188128;28;20064;-60
2022/03/13 05:23:47;;;;;;;21.40;13.85;;;;;;;4.48;50.74;100618.28;4196324;28;20557;-61
2022/03/13 05:25:51;;;;;;;20.25;13.85;;;;;;;4.28;50.64;100624.28;4186953;28;20044;-61
2022/03/13 05:27:54;;;;;;;24.52;13.50;;;;;;;4.13;49.97;100622.84;4180333;28;20071;-61
2022/03/13 05:29:57;;;;;;;20.00;12.02;;;;;;;4.13;49.52;100629.66;4190824;28;20044;-61
2022/03/13 05:31:59;;;;;;;19.70;13.43;;;;;;;4.21;49.25;100624.88;4195600;28;20041;-60
2022/03/13 05:34:02;;;;;;;23.52;12.85;;;;;;;4.39;49.18;100625.63;4179139;28;20049;-61
2022/03/13 05:36:06;;;;;;;23.33;14.15;;;;;;;4.52;49.11;100638.19;4180805;28;20049;-60
2022/03/13 05:38:09;;;;;;;22.45;13.80;;;;;;;4.62;49.37;100633.44;4180866;28;20045;-61
2022/03/13 05:40:14;;;;;;;22.65;13.20;;;;;;;4.69;48.63;100630.28;4194103;28;20058;-61
2022/03/13 05:42:18;;;;;;;;;;;;;;;4.52;48.55;100637.31;4179899;28;20041;-61
2022/03/13 05:44:23;;;;;;;20.00;13.18;;;;;;;4.64;48.31;100644.66;4193560;28;19924;-60
2022/03/13 05:46:25;;;;;;;22.08;13.98;;;;;;;4.70;48.23;100647.47;4195759;28;20048;-61
2022/03/13 05:48:30;;;;;;;19.90;13.55;;;;;;;4.77;48.44;100641.75;4193533;28;20048;-61
2022/03/13 05:50:33;;;;;;;21.67;14.00;;;;;;;4.82;48.36;100645.41;4164015;28;20053;-61
2022/03/13 05:52:36;;;;;;;23.42;14.70;;;;;;;4.88;48.01;100639.63;4183336;28;20045;-60
2022/03/13 05:54:38;;;;;;;20.20;13.35;;;;;;;4.84;48.73;100646.34;4189901;28;20079;-61
2022/03/13 05:56:42;;;;;;;19.33;13.13;;;;;;;4.83;49.00;100643.72;4196884;28;20564;-61
2022/03/13 05:58:46;;;;;;;19.67;12.55;;;;;;;4.84;48.88;100648.91;4189989;28;20071;-61
2022/03/13 06:01:01;;;;;;;21.60;13.87;;;;;;;4.87;48.70;100655.91;4196311;28;20053;-60
2022/03/13 06:03:06;;;;;;;19.35;13.68;;;;;;;4.83;48.44;100660.06;4186624;28;20124;-61
2022/03/13 06:05:11;;;;;;;21.88;14.57;;;;;;;4.76;48.05;100662.31;4180969;28;20041;-61
2022/03/13 06:07:13;;;;;;;21.98;13.70;;;;;;;4.71;48.29;100664.69;4192840;28;20441;-60
2022/03/13 06:09:16;;;;;;;21.67;14.23;;;;;;;4.70;48.82;100673.22;4178675;28;20057;-61
2022/03/13 06:11:18;;;;;;;19.50;12.93;;;;;;;4.68;48.66;100678.31;4182583;28;20115;-60
2022/03/13 06:13:22;;;;;;;21.48;13.93;;;;;;;4.69;48.45;100681.78;4195466;28;20044;-61
2022/03/13 06:15:26;;;;;;;23.77;14.18;;;;;;;4.69;48.34;100681.78;4192451;28;20444;-60
2022/03/13 06:17:29;;;;;;;23.08;13.70;;;;;;;4.67;49.07;100683.41;4196578;28;20087;-60
2022/03/13 06:19:32;;;;;;;26.58;14.65;;;;;;;4.69;48.96;100687.81;4178769;28;20041;-61
2022/03/13 06:21:35;;;;;;;22.35;14.90;;;;;;;4.69;49.07;100686.94;4195265;28;20041;-60
2022/03/13 06:23:37;;;;;;;25.67;14.50;;;;;;;4.70;48.45;100687.00;4194371;28;20044;-61
2022/03/13 06:25:41;;;;;;;20.75;14.73;;;;;;;4.67;48.19;100696.28;4189530;28;20111;-60
2022/03/13 06:27:49;;;;;;;24.17;14.40;;;;;;;4.63;49.65;100691.81;4199994;28;20437;-60
2022/03/13 06:29:52;;;;;;;22.63;14.70;;;;;;;4.68;49.80;100692.91;4197715;28;20067;-60
2022/03/13 06:31:56;;;;;;;20.58;14.88;;;;;;;4.68;50.44;100690.31;4190645;28;20384;-61
2022/03/13 06:33:59;;;;;;;20.13;13.60;;;;;;;4.71;50.34;100682.72;4199361;28;20044;-61
2022/03/13 06:36:02;;;;;;;19.27;13.32;;;;;;;4.68;51.31;100687.75;4178372;28;20045;-61
2022/03/13 06:38:05;;;;;;;19.75;13.27;;;;;;;4.69;52.10;100684.38;4190238;28;20114;-60
2022/03/13 06:40:10;;;;;;;20.17;14.00;;;;;;;4.68;53.70;100690.31;4190484;28;20107;-60
2022/03/13 06:42:13;;;;;;;22.83;15.32;;;;;;;4.70;53.88;100687.00;4192251;28;20465;-60
2022/03/13 06:44:16;;;;;;;19.95;13.73;;;;;;;4.71;54.55;100685.28;4195366;28;20112;-61
2022/03/13 06:46:19;;;;;;;22.85;14.93;;;;;;;4.79;54.41;100696.81;4197758;28;20037;-61
2022/03/13 06:48:23;;;;;;;19.13;13.45;;;;;;;4.76;54.78;100688.97;4179855;28;20049;-60
2022/03/13 06:50:26;;;;;;;23.38;15.88;;;;;;;4.77;54.81;100689.81;4179635;28;20051;-60
2022/03/13 06:52:28;;;;;;;19.98;14.48;;;;;;;4.76;55.39;100694.09;4187853;28;20048;-59
2022/03/13 06:54:31;;;;;;;24.75;15.15;;;;;;;4.79;55.43;100701.97;4182651;28;20041;-60
2022/03/13 06:56:35;;;;;;;21.10;15.48;;;;;;;4.85;55.00;100707.34;4189125;28;20037;-59
2022/03/13 06:58:39;;;;;;;22.63;15.60;;;;;;;4.89;54.83;100713.50;4199586;28;20043;-60
2022/03/13 07:00:42;;;;;;;18.07;14.40;;;;;;;4.93;55.15;100711.94;4199058;28;20094;-60
2022/03/13 07:02:47;;;;;;;19.70;13.25;;;;;;;4.93;55.77;100710.25;4197231;28;20068;-60
2022/03/13 07:04:51;;;;;;;21.02;13.95;;;;;;;5.03;55.14;100709.78;4188431;28;20091;-60
2022/03/13 07:06:54;;;;;;;18.42;13.60;;;;;;;5.04;55.01;100710.69;4195312;28;20076;-60
2022/03/13 07:08:59;;;;;;;21.40;14.57;;;;;;;5.06;54.96;100704.75;4196140;28;20099;-60
2022/03/13 07:11:02;;;;;;;20.52;15.13;;;;;;;4.97;54.37;100709.56;4194197;28;20116;-60
2022/03/13 07:13:05;;;;;;;23.35;14.93;;;;;;;4.96;54.24;100702.63;4197898;28;20048;-60
2022/03/13 07:15:10;;;;;;;20.08;13.88;;;;;;;5.02;52.89;100699.44;4189726;28;20399;-61
2022/03/13 07:17:13;;;;;;;16.98;12.40;;;;;;;5.13;52.69;100708.47;4186270;28;20114;-60
2022/03/13 07:19:16;;;;;;;23.95;15.00;;;;;;;5.24;51.69;100707.22;4196892;28;20555;-60
2022/03/13 07:21:20;;;;;;;22.45;14.18;;;;;;;5.29;51.94;100711.69;4196846;28;20037;-60
2022/03/13 07:23:23;;;;;;;20.03;14.10;;;;;;;5.25;51.93;100716.69;4197306;28;20441;-60
2022/03/13 07:25:26;;;;;;;18.35;13.55;;;;;;;5.36;51.47;100709.41;4198013;28;20286;-61
2022/03/13 07:27:29;;;;;;;24.60;14.50;;;;;;;5.40;51.33;100703.56;4190315;28;20560;-60
2022/03/13 07:29:32;;;;;;;19.75;13.90;;;;;;;5.50;51.01;100711.63;4182375;28;20561;-60
2022/03/13 07:31:35;;;;;;;18.75;12.55;;;;;;;5.57;50.67;100708.47;4195659;28;20641;-63
2022/03/13 07:33:38;;;;;;;25.08;15.35;;;;;;;5.68;50.48;100706.28;4179267;28;20438;-60
2022/03/13 07:35:40;;;;;;;20.95;14.13;;;;;;;5.75;50.34;100711.75;4190089;28;20052;-60
2022/03/13 07:37:45;;;;;;;23.15;14.35;;;;;;;5.81;49.95;100716.28;4180635;28;20045;-60
2022/03/13 07:39:48;;;;;;;18.90;13.38;;;;;;;5.82;49.81;100710.28;4194466;28;20422;-62
2022/03/13 07:41:51;;;;;;;21.15;13.73;;;;;;;5.88;50.27;100707.91;4211357;28;20497;-60
2022/03/13 07:43:54;;;;;;;20.85;14.60;;;;;;;5.98;49.28;100711.75;4208623;28;20029;-60
2022/03/13 07:45:56;;;;;;;19.52;13.70;;;;;;;6.00;48.72;100710.13;4193170;28;20040;-60
2022/03/13 07:47:59;;;;;;;22.15;15.23;;;;;;;6.09;48.60;100709.59;4198124;28;20251;-60
2022/03/13 07:50:03;;;;;;;23.25;14.63;;;;;;;6.15;49.06;100706.31;4197304;28;20410;-60
2022/03/13 07:52:07;;;;;;;19.38;13.75;;;;;;;6.21;48.61;100707.44;4194944;28;20044;-61
2022/03/13 07:54:11;;;;;;;22.73;14.85;;;;;;;6.24;48.56;100709.25;4198304;28;20079;-60
2022/03/13 07:56:15;;;;;;;19.35;14.30;;;;;;;6.32;48.72;100712.09;4187047;28;20036;-60
2022/03/13 07:58:18;;;;;;;17.55;13.32;;;;;;;6.39;48.97;100708.91;4182230;28;20063;-60
2022/03/13 08:00:22;;;;;;;21.33;13.98;;;;;;;6.44;49.06;100699.63;4189990;28;20044;-60
2022/03/13 08:02:25;;;;;;;18.83;13.93;;;;;;;6.47;49.13;100704.91;4188036;28;20194;-61
2022/03/13 08:04:28;;;;;;;21.83;13.95;;;;;;;6.50;48.96;100705.00;4198013;28;20111;-60
2022/03/13 08:06:31;;;;;;;19.55;14.70;;;;;;;6.56;48.02;100701.75;4194315;28;20049;-60
2022/03/13 08:08:34;;;;;;;21.05;15.07;;;;;;;6.61;47.58;100701.09;4182214;28;20043;-60
2022/03/13 08:10:38;;;;;;;20.65;14.70;;;;;;;6.71;47.29;100696.22;4164646;28;20073;-60
2022/03/13 08:12:41;;;;;;;24.03;15.67;;;;;;;6.89;46.73;100685.63;4181223;28;20399;-60
2022/03/13 08:14:44;;;;;;;22.70;15.05;;;;;;;6.95;46.32;100686.72;4185619;28;20755;-60
2022/03/13 08:16:46;;;;;;;26.13;15.68;;;;;;;7.21;43.97;100686.66;4195214;28;20036;-61
2022/03/13 08:18:49;;;;;;;24.88;15.07;;;;;;;7.18;44.14;100678.78;4186466;28;20095;-61
2022/03/13 08:20:52;;;;;;;25.73;15.20;;;;;;;7.29;43.30;100677.44;4196426;28;20044;-61
2022/03/13 08:22:55;;;;;;;22.48;14.68;;;;;;;7.41;43.26;100676.06;4194682;28;20115;-61
2022/03/13 08:24:58;;;;;;;33.35;16.00;;;;;;;7.38;43.27;100675.97;4179926;28;20065;-61
2022/03/13 08:27:02;;;;;;;21.45;14.18;;;;;;;7.29;44.31;100669.66;4195205;28;20037;-61
2022/03/13 08:29:06;;;;;;;22.17;14.20;;;;;;;7.33;43.80;100673.25;4180162;28;20051;-61
2022/03/13 08:31:09;;;;;;;22.00;15.07;;;;;;;7.68;41.13;100679.47;4192096;28;20044;-61
2022/03/13 08:33:12;;;;;;;22.63;14.90;;;;;;;7.69;41.10;100673.47;4195793;28;20056;-61
2022/03/13 08:35:14;;;;;;;24.15;15.88;;;;;;;7.77;41.61;100665.03;4196581;28;20048;-61
2022/03/13 08:37:18;;;;;;;24.83;15.15;;;;;;;7.78;41.35;100664.19;4186566;28;20119;-61
2022/03/13 08:39:20;;;;;;;21.88;14.90;;;;;;;7.93;40.55;100663.75;4197591;28;20040;-60
2022/03/13 08:41:24;;;;;;;25.02;15.38;;;;;;;7.95;40.14;100657.78;4197668;28;20036;-61
2022/03/13 08:43:28;;;;;;;20.05;12.25;;;;;;;7.79;41.45;100664.25;4197233;28;20037;-60
2022/03/13 08:45:30;;;;;;;17.73;12.47;;;;;;;7.84;41.54;100665.28;4196303;28;20083;-60
2022/03/13 08:47:33;;;;;;;21.30;12.70;;;;;;;7.99;39.66;100674.31;4197336;28;20110;-60
2022/03/13 08:49:36;;;;;;;23.65;13.10;;;;;;;8.01;39.44;100672.63;4190720;28;20053;-60
2022/03/13 08:51:38;;;;;;;21.55;12.13;;;;;;;8.09;39.77;100672.81;4164960;28;20053;-60
2022/03/13 08:53:42;;;;;;;21.83;12.05;;;;;;;8.20;39.95;100676.59;4189493;28;20032;-61
2022/03/13 08:55:44;;;;;;;16.50;10.93;;;;;;;8.26;39.78;100674.16;4181357;28;20049;-60
2022/03/13 08:57:47;;;;;;;17.10;10.88;;;;;;;8.34;39.99;100674.41;4196880;28;20118;-60
2022/03/13 08:59:51;;;;;;;17.08;11.98;;;;;;;8.55;38.41;100671.50;4192501;28;20070;-61
2022/03/13 09:01:54;;;;;;;19.83;13.05;;;;;;;8.72;36.53;100670.22;4190049;28;20083;-60
2022/03/13 09:03:57;;;;;;;19.15;11.57;;;;;;;8.92;35.25;100659.47;4189989;28;20039;-61
2022/03/13 09:05:59;;;;;;;15.23;11.48;;;;;;;8.71;35.66;100667.59;4188801;28;20402;-61
2022/03/13 09:08:05;;;;;;;19.10;11.50;;;;;;;8.81;35.95;100663.53;4191843;28;20409;-61
2022/03/13 09:10:09;;;;;;;17.98;11.63;;;;;;;8.71;36.21;100663.28;4189097;28;20041;-61
2022/03/13 09:12:13;;;;;;;20.20;10.80;;;;;;;8.67;36.97;100666.66;4187048;28;20390;-61
2022/03/13 09:14:16;;;;;;;20.17;10.15;;;;;;;8.70;37.10;100661.53;4191570;28;20048;-61
2022/03/13 09:16:20;;;;;;;15.98;11.13;;;;;;;8.90;35.71;100661.16;4197550;28;20033;-61
2022/03/13 09:18:23;;;;;;;14.52;9.45;;;;;;;8.92;35.62;100667.22;4197724;28;20053;-61
2022/03/13 09:20:25;;;;;;;13.02;9.05;;;;;;;8.98;36.18;100658.72;4197159;28;20044;-61
2022/03/13 09:22:30;;;;;;;16.58;9.57;;;;;;;9.08;36.51;100655.50;4181126;28;20041;-61
2022/03/13 09:24:34;;;;;;;14.38;9.63;;;;;;;9.18;36.58;100656.63;4189688;28;20124;-61
2022/03/13 09:26:39;;;;;;;14.73;10.65;;;;;;;9.25;35.63;100663.69;4185563;28;20410;-61
2022/03/13 09:28:42;;;;;;;15.07;10.00;;;;;;;9.28;35.17;100665.50;4196119;28;20509;-61